sensor_id;sensor_type;location;lat;lon;timestamp;temperature;humidity
40848;DHT22;26570;50.962;5.340;2022-07-29T00:00:39;18.60;99.90
40848;DHT22;26570;50.962;5.340;2022-07-29T00:03:24;18.50;99.90
40848;DHT22;26570;50.962;5.340;2022-07-29T00:06:09;18.40;99.90
40848;DHT22;26570;50.962;5.340;2022-07-29T00:08:53;18.40;99.90
40848;DHT22;26570;50.962;5.340;2022-07-29T00:11:38;18.40;99.90
40848;DHT22;26570;50.962;5.340;2022-07-29T00:14:23;18.40;99.90
40848;DHT22;26570;50.962;5.340;2022-07-29T00:17:07;18.40;99.90
40848;DHT22;26570;50.962;5.340;2022-07-29T00:19:52;18.40;99.90
40848;DHT22;26570;50.962;5.340;2022-07-29T00:22:38;18.30;99.90
40848;DHT22;26570;50.962;5.340;2022-07-29T00:25:23;18.40;99.90
40848;DHT22;26570;50.962;5.340;2022-07-29T00:28:09;18.40;99.90
40848;DHT22;26570;50.962;5.340;2022-07-29T00:30:53;18.40;99.90
40848;DHT22;26570;50.962;5.340;2022-07-29T00:33:38;18.30;99.90
40848;DHT22;26570;50.962;5.340;2022-07-29T00:36:23;18.20;99.90
40848;DHT22;26570;50.962;5.340;2022-07-29T00:39:08;18.10;99.90
40848;DHT22;26570;50.962;5.340;2022-07-29T00:41:52;18.00;99.90
40848;DHT22;26570;50.962;5.340;2022-07-29T00:44:39;17.90;99.90
40848;DHT22;26570;50.962;5.340;2022-07-29T00:47:23;18.00;99.90
40848;DHT22;26570;50.962;5.340;2022-07-29T00:50:10;17.90;99.90
40848;DHT22;26570;50.962;5.340;2022-07-29T00:52:55;18.00;99.90
40848;DHT22;26570;50.962;5.340;2022-07-29T00:55:39;18.00;99.90
40848;DHT22;26570;50.962;5.340;2022-07-29T00:58:24;17.80;99.90
40848;DHT22;26570;50.962;5.340;2022-07-29T01:01:10;17.80;99.90
40848;DHT22;26570;50.962;5.340;2022-07-29T01:03:55;17.80;99.90
40848;DHT22;26570;50.962;5.340;2022-07-29T01:06:42;17.80;99.90
40848;DHT22;26570;50.962;5.340;2022-07-29T01:09:27;17.70;99.90
40848;DHT22;26570;50.962;5.340;2022-07-29T01:12:15;17.70;99.90
40848;DHT22;26570;50.962;5.340;2022-07-29T01:15:02;17.70;99.90
40848;DHT22;26570;50.962;5.340;2022-07-29T01:20:51;17.90;99.90
40848;DHT22;26570;50.962;5.340;2022-07-29T01:29:56;17.90;99.90
40848;DHT22;26570;50.962;5.340;2022-07-29T01:32:41;17.80;99.90
40848;DHT22;26570;50.962;5.340;2022-07-29T01:35:47;17.90;99.90
40848;DHT22;26570;50.962;5.340;2022-07-29T01:38:34;18.00;99.90
40848;DHT22;26570;50.962;5.340;2022-07-29T01:41:20;17.90;99.90
40848;DHT22;26570;50.962;5.340;2022-07-29T01:44:13;17.90;99.90
40848;DHT22;26570;50.962;5.340;2022-07-29T01:47:02;17.90;99.90
40848;DHT22;26570;50.962;5.340;2022-07-29T01:49:54;17.90;99.90
40848;DHT22;26570;50.962;5.340;2022-07-29T01:52:54;17.80;99.90
40848;DHT22;26570;50.962;5.340;2022-07-29T01:55:43;17.70;99.90
40848;DHT22;26570;50.962;5.340;2022-07-29T01:58:29;17.70;99.90
40848;DHT22;26570;50.962;5.340;2022-07-29T02:01:16;17.80;99.90
40848;DHT22;26570;50.962;5.340;2022-07-29T02:04:03;17.70;99.90
40848;DHT22;26570;50.962;5.340;2022-07-29T02:06:51;17.70;99.90
40848;DHT22;26570;50.962;5.340;2022-07-29T02:09:38;17.60;99.90
40848;DHT22;26570;50.962;5.340;2022-07-29T02:12:26;17.40;99.90
40848;DHT22;26570;50.962;5.340;2022-07-29T02:15:13;17.30;99.90
40848;DHT22;26570;50.962;5.340;2022-07-29T02:18:09;17.10;99.90
40848;DHT22;26570;50.962;5.340;2022-07-29T02:20:56;17.10;99.90
40848;DHT22;26570;50.962;5.340;2022-07-29T02:23:43;16.90;99.90
40848;DHT22;26570;50.962;5.340;2022-07-29T02:26:30;16.90;99.90
40848;DHT22;26570;50.962;5.340;2022-07-29T02:29:20;16.80;99.90
40848;DHT22;26570;50.962;5.340;2022-07-29T02:32:07;16.80;99.90
40848;DHT22;26570;50.962;5.340;2022-07-29T02:34:53;16.90;99.90
40848;DHT22;26570;50.962;5.340;2022-07-29T02:37:39;17.10;99.90
40848;DHT22;26570;50.962;5.340;2022-07-29T02:40:24;17.20;99.90
40848;DHT22;26570;50.962;5.340;2022-07-29T02:43:09;17.30;99.90
40848;DHT22;26570;50.962;5.340;2022-07-29T02:45:57;17.10;99.90
40848;DHT22;26570;50.962;5.340;2022-07-29T02:48:50;17.20;99.90
40848;DHT22;26570;50.962;5.340;2022-07-29T02:52:00;17.30;99.90
40848;DHT22;26570;50.962;5.340;2022-07-29T02:55:07;17.40;99.90
40848;DHT22;26570;50.962;5.340;2022-07-29T02:57:59;17.50;99.90
40848;DHT22;26570;50.962;5.340;2022-07-29T03:00:47;17.50;99.90
40848;DHT22;26570;50.962;5.340;2022-07-29T03:03:36;17.50;99.90
40848;DHT22;26570;50.962;5.340;2022-07-29T03:06:23;17.50;99.90
40848;DHT22;26570;50.962;5.340;2022-07-29T03:09:10;17.50;99.90
40848;DHT22;26570;50.962;5.340;2022-07-29T03:11:55;17.50;99.90
40848;DHT22;26570;50.962;5.340;2022-07-29T03:14:41;17.60;99.90
40848;DHT22;26570;50.962;5.340;2022-07-29T03:17:27;17.50;99.90
40848;DHT22;26570;50.962;5.340;2022-07-29T03:20:12;17.50;99.90
40848;DHT22;26570;50.962;5.340;2022-07-29T03:22:57;17.50;99.90
40848;DHT22;26570;50.962;5.340;2022-07-29T03:25:43;17.40;99.90
40848;DHT22;26570;50.962;5.340;2022-07-29T03:28:32;17.40;99.90
40848;DHT22;26570;50.962;5.340;2022-07-29T03:31:17;17.40;99.90
40848;DHT22;26570;50.962;5.340;2022-07-29T03:34:01;17.50;99.90
40848;DHT22;26570;50.962;5.340;2022-07-29T03:36:46;17.50;99.90
40848;DHT22;26570;50.962;5.340;2022-07-29T03:39:36;17.50;99.90
40848;DHT22;26570;50.962;5.340;2022-07-29T03:42:25;17.60;99.90
40848;DHT22;26570;50.962;5.340;2022-07-29T03:45:16;17.60;99.90
40848;DHT22;26570;50.962;5.340;2022-07-29T03:48:07;17.50;99.90
40848;DHT22;26570;50.962;5.340;2022-07-29T03:50:54;17.50;99.90
40848;DHT22;26570;50.962;5.340;2022-07-29T03:53:39;17.50;99.90
40848;DHT22;26570;50.962;5.340;2022-07-29T03:56:24;17.50;99.90
40848;DHT22;26570;50.962;5.340;2022-07-29T03:59:10;17.50;99.90
40848;DHT22;26570;50.962;5.340;2022-07-29T04:01:57;17.40;99.90
40848;DHT22;26570;50.962;5.340;2022-07-29T04:04:42;17.50;99.90
40848;DHT22;26570;50.962;5.340;2022-07-29T04:07:27;17.60;99.90
40848;DHT22;26570;50.962;5.340;2022-07-29T04:10:13;17.70;99.90
40848;DHT22;26570;50.962;5.340;2022-07-29T04:12:58;17.60;99.90
40848;DHT22;26570;50.962;5.340;2022-07-29T04:15:43;17.60;99.90
40848;DHT22;26570;50.962;5.340;2022-07-29T04:18:27;17.50;99.90
40848;DHT22;26570;50.962;5.340;2022-07-29T04:21:12;17.50;99.90
40848;DHT22;26570;50.962;5.340;2022-07-29T04:23:57;17.50;99.90
40848;DHT22;26570;50.962;5.340;2022-07-29T04:26:42;17.50;99.90
40848;DHT22;26570;50.962;5.340;2022-07-29T04:29:26;17.50;99.90
40848;DHT22;26570;50.962;5.340;2022-07-29T04:32:11;17.40;99.90
40848;DHT22;26570;50.962;5.340;2022-07-29T04:34:55;17.30;99.90
40848;DHT22;26570;50.962;5.340;2022-07-29T04:37:40;17.30;99.90
40848;DHT22;26570;50.962;5.340;2022-07-29T04:40:25;17.40;99.90
40848;DHT22;26570;50.962;5.340;2022-07-29T04:43:10;17.60;99.90
40848;DHT22;26570;50.962;5.340;2022-07-29T04:45:54;17.70;99.90
40848;DHT22;26570;50.962;5.340;2022-07-29T04:48:40;17.70;99.90
40848;DHT22;26570;50.962;5.340;2022-07-29T04:51:24;17.80;99.90
40848;DHT22;26570;50.962;5.340;2022-07-29T04:54:09;17.90;99.90
40848;DHT22;26570;50.962;5.340;2022-07-29T04:56:54;17.90;99.90
40848;DHT22;26570;50.962;5.340;2022-07-29T04:59:39;17.80;99.90
40848;DHT22;26570;50.962;5.340;2022-07-29T05:02:23;17.70;99.90
40848;DHT22;26570;50.962;5.340;2022-07-29T05:05:08;17.70;99.90
40848;DHT22;26570;50.962;5.340;2022-07-29T05:07:53;17.60;99.90
40848;DHT22;26570;50.962;5.340;2022-07-29T05:10:38;17.60;99.90
40848;DHT22;26570;50.962;5.340;2022-07-29T05:13:22;17.70;99.90
40848;DHT22;26570;50.962;5.340;2022-07-29T05:16:08;17.90;99.90
40848;DHT22;26570;50.962;5.340;2022-07-29T05:18:52;17.90;99.90
40848;DHT22;26570;50.962;5.340;2022-07-29T05:21:37;17.90;99.90
40848;DHT22;26570;50.962;5.340;2022-07-29T05:24:22;18.10;99.90
40848;DHT22;26570;50.962;5.340;2022-07-29T05:27:07;18.10;99.90
40848;DHT22;26570;50.962;5.340;2022-07-29T05:29:52;17.70;99.90
40848;DHT22;26570;50.962;5.340;2022-07-29T05:32:37;17.60;99.90
40848;DHT22;26570;50.962;5.340;2022-07-29T05:35:21;17.60;99.90
40848;DHT22;26570;50.962;5.340;2022-07-29T05:38:06;17.60;99.90
40848;DHT22;26570;50.962;5.340;2022-07-29T05:40:51;17.60;99.90
40848;DHT22;26570;50.962;5.340;2022-07-29T05:43:36;17.50;99.90
40848;DHT22;26570;50.962;5.340;2022-07-29T05:46:20;17.60;99.90
40848;DHT22;26570;50.962;5.340;2022-07-29T05:49:05;17.70;99.90
40848;DHT22;26570;50.962;5.340;2022-07-29T05:51:51;17.60;99.90
40848;DHT22;26570;50.962;5.340;2022-07-29T05:54:36;17.50;99.90
40848;DHT22;26570;50.962;5.340;2022-07-29T05:57:24;17.60;99.90
40848;DHT22;26570;50.962;5.340;2022-07-29T06:00:09;17.60;99.90
40848;DHT22;26570;50.962;5.340;2022-07-29T06:02:54;17.60;99.90
40848;DHT22;26570;50.962;5.340;2022-07-29T06:05:39;17.60;99.90
40848;DHT22;26570;50.962;5.340;2022-07-29T06:08:23;17.70;99.90
40848;DHT22;26570;50.962;5.340;2022-07-29T06:11:08;17.90;99.90
40848;DHT22;26570;50.962;5.340;2022-07-29T06:13:53;18.00;99.90
40848;DHT22;26570;50.962;5.340;2022-07-29T06:16:38;18.10;99.90
40848;DHT22;26570;50.962;5.340;2022-07-29T06:19:23;18.10;99.90
40848;DHT22;26570;50.962;5.340;2022-07-29T06:22:08;18.40;99.90
40848;DHT22;26570;50.962;5.340;2022-07-29T06:24:53;18.60;99.90
40848;DHT22;26570;50.962;5.340;2022-07-29T06:27:40;18.60;99.90
40848;DHT22;26570;50.962;5.340;2022-07-29T06:30:25;18.60;99.90
40848;DHT22;26570;50.962;5.340;2022-07-29T06:33:16;18.80;99.90
40848;DHT22;26570;50.962;5.340;2022-07-29T06:36:04;18.90;99.90
40848;DHT22;26570;50.962;5.340;2022-07-29T06:38:49;19.20;99.90
40848;DHT22;26570;50.962;5.340;2022-07-29T06:41:34;19.40;99.90
40848;DHT22;26570;50.962;5.340;2022-07-29T06:44:18;20.40;99.90
40848;DHT22;26570;50.962;5.340;2022-07-29T06:47:04;21.90;99.90
40848;DHT22;26570;50.962;5.340;2022-07-29T06:49:49;23.00;99.90
40848;DHT22;26570;50.962;5.340;2022-07-29T06:52:34;23.80;99.90
40848;DHT22;26570;50.962;5.340;2022-07-29T06:55:20;24.60;99.90
40848;DHT22;26570;50.962;5.340;2022-07-29T06:58:05;25.10;99.90
40848;DHT22;26570;50.962;5.340;2022-07-29T07:00:51;25.20;99.90
40848;DHT22;26570;50.962;5.340;2022-07-29T07:03:36;26.00;99.90
40848;DHT22;26570;50.962;5.340;2022-07-29T07:06:22;26.60;97.90
40848;DHT22;26570;50.962;5.340;2022-07-29T07:09:07;26.50;96.70
40848;DHT22;26570;50.962;5.340;2022-07-29T07:11:52;27.00;96.30
40848;DHT22;26570;50.962;5.340;2022-07-29T07:14:37;27.10;95.40
40848;DHT22;26570;50.962;5.340;2022-07-29T07:17:24;27.40;95.40
40848;DHT22;26570;50.962;5.340;2022-07-29T07:20:09;27.30;94.90
40848;DHT22;26570;50.962;5.340;2022-07-29T07:22:55;27.90;94.10
40848;DHT22;26570;50.962;5.340;2022-07-29T07:25:40;28.50;93.60
40848;DHT22;26570;50.962;5.340;2022-07-29T07:28:24;29.30;92.40
40848;DHT22;26570;50.962;5.340;2022-07-29T07:31:10;29.20;91.50
40848;DHT22;26570;50.962;5.340;2022-07-29T07:33:56;29.00;92.30
40848;DHT22;26570;50.962;5.340;2022-07-29T07:36:41;28.90;91.50
40848;DHT22;26570;50.962;5.340;2022-07-29T07:39:26;29.00;91.50
40848;DHT22;26570;50.962;5.340;2022-07-29T07:42:11;29.80;91.10
40848;DHT22;26570;50.962;5.340;2022-07-29T07:44:57;30.30;90.30
40848;DHT22;26570;50.962;5.340;2022-07-29T07:47:41;30.20;90.30
40848;DHT22;26570;50.962;5.340;2022-07-29T07:50:26;30.60;88.00
40848;DHT22;26570;50.962;5.340;2022-07-29T07:53:11;31.20;87.70
40848;DHT22;26570;50.962;5.340;2022-07-29T07:55:56;31.60;87.00
40848;DHT22;26570;50.962;5.340;2022-07-29T07:58:41;31.20;85.70
40848;DHT22;26570;50.962;5.340;2022-07-29T08:01:26;31.40;85.00
40848;DHT22;26570;50.962;5.340;2022-07-29T08:04:11;31.60;86.40
40848;DHT22;26570;50.962;5.340;2022-07-29T08:06:57;31.90;84.30
40848;DHT22;26570;50.962;5.340;2022-07-29T08:09:42;31.80;84.20
40848;DHT22;26570;50.962;5.340;2022-07-29T08:12:27;31.90;84.30
40848;DHT22;26570;50.962;5.340;2022-07-29T08:15:12;31.70;83.50
40848;DHT22;26570;50.962;5.340;2022-07-29T08:17:56;31.60;84.30
40848;DHT22;26570;50.962;5.340;2022-07-29T08:20:41;32.00;84.10
40848;DHT22;26570;50.962;5.340;2022-07-29T08:23:26;31.90;83.30
40848;DHT22;26570;50.962;5.340;2022-07-29T08:26:23;32.20;82.80
40848;DHT22;26570;50.962;5.340;2022-07-29T08:29:08;32.30;82.10
40848;DHT22;26570;50.962;5.340;2022-07-29T08:31:52;32.20;83.20
40848;DHT22;26570;50.962;5.340;2022-07-29T08:34:38;31.80;82.90
40848;DHT22;26570;50.962;5.340;2022-07-29T08:37:22;31.90;85.30
40848;DHT22;26570;50.962;5.340;2022-07-29T08:40:07;31.80;83.50
40848;DHT22;26570;50.962;5.340;2022-07-29T08:42:52;31.60;83.70
40848;DHT22;26570;50.962;5.340;2022-07-29T08:45:45;31.20;83.70
40848;DHT22;26570;50.962;5.340;2022-07-29T08:48:31;30.80;84.40
40848;DHT22;26570;50.962;5.340;2022-07-29T08:51:18;30.50;86.90
40848;DHT22;26570;50.962;5.340;2022-07-29T08:54:03;30.10;86.90
40848;DHT22;26570;50.962;5.340;2022-07-29T08:56:51;29.30;88.60
40848;DHT22;26570;50.962;5.340;2022-07-29T08:59:37;29.40;90.20
40848;DHT22;26570;50.962;5.340;2022-07-29T09:02:27;29.60;89.80
40848;DHT22;26570;50.962;5.340;2022-07-29T09:05:13;29.10;90.20
40848;DHT22;26570;50.962;5.340;2022-07-29T09:07:59;29.20;89.90
40848;DHT22;26570;50.962;5.340;2022-07-29T09:10:44;28.80;90.80
40848;DHT22;26570;50.962;5.340;2022-07-29T09:13:30;29.10;90.60
40848;DHT22;26570;50.962;5.340;2022-07-29T09:16:15;29.50;90.00
40848;DHT22;26570;50.962;5.340;2022-07-29T09:19:00;29.70;89.20
40848;DHT22;26570;50.962;5.340;2022-07-29T09:21:45;29.60;89.00
40848;DHT22;26570;50.962;5.340;2022-07-29T09:24:46;29.90;90.40
40848;DHT22;26570;50.962;5.340;2022-07-29T09:27:31;30.00;90.00
40848;DHT22;26570;50.962;5.340;2022-07-29T09:30:17;30.50;90.10
40848;DHT22;26570;50.962;5.340;2022-07-29T09:33:03;30.10;89.00
40848;DHT22;26570;50.962;5.340;2022-07-29T09:36:03;30.20;87.90
40848;DHT22;26570;50.962;5.340;2022-07-29T09:38:58;30.20;87.30
40848;DHT22;26570;50.962;5.340;2022-07-29T09:41:51;30.10;87.00
40848;DHT22;26570;50.962;5.340;2022-07-29T09:44:47;30.10;87.70
40848;DHT22;26570;50.962;5.340;2022-07-29T09:47:46;30.20;86.40
40848;DHT22;26570;50.962;5.340;2022-07-29T09:50:40;30.10;84.70
40848;DHT22;26570;50.962;5.340;2022-07-29T09:53:36;30.30;86.30
40848;DHT22;26570;50.962;5.340;2022-07-29T09:56:41;30.40;84.70
40848;DHT22;26570;50.962;5.340;2022-07-29T09:59:26;30.00;86.20
40848;DHT22;26570;50.962;5.340;2022-07-29T10:02:13;29.90;86.10
40848;DHT22;26570;50.962;5.340;2022-07-29T10:04:59;30.10;84.90
40848;DHT22;26570;50.962;5.340;2022-07-29T10:07:52;30.10;86.60
40848;DHT22;26570;50.962;5.340;2022-07-29T10:10:39;30.00;85.30
40848;DHT22;26570;50.962;5.340;2022-07-29T10:13:25;30.10;83.80
40848;DHT22;26570;50.962;5.340;2022-07-29T10:16:12;30.00;84.40
40848;DHT22;26570;50.962;5.340;2022-07-29T10:18:57;29.60;86.10
40848;DHT22;26570;50.962;5.340;2022-07-29T10:21:42;29.40;86.70
40848;DHT22;26570;50.962;5.340;2022-07-29T10:24:30;29.20;85.10
40848;DHT22;26570;50.962;5.340;2022-07-29T10:27:15;29.20;85.40
40848;DHT22;26570;50.962;5.340;2022-07-29T10:30:00;29.10;84.40
40848;DHT22;26570;50.962;5.340;2022-07-29T10:42:25;29.60;84.20
40848;DHT22;26570;50.962;5.340;2022-07-29T10:45:11;29.70;82.20
40848;DHT22;26570;50.962;5.340;2022-07-29T10:48:06;29.90;82.30
40848;DHT22;26570;50.962;5.340;2022-07-29T10:51:02;29.60;84.90
40848;DHT22;26570;50.962;5.340;2022-07-29T10:53:52;29.70;83.90
40848;DHT22;26570;50.962;5.340;2022-07-29T10:56:37;29.80;83.00
40848;DHT22;26570;50.962;5.340;2022-07-29T10:59:22;29.90;82.90
40848;DHT22;26570;50.962;5.340;2022-07-29T11:05:20;30.00;81.80
40848;DHT22;26570;50.962;5.340;2022-07-29T11:14:04;30.40;81.40
40848;DHT22;26570;50.962;5.340;2022-07-29T11:17:04;30.60;81.00
40848;DHT22;26570;50.962;5.340;2022-07-29T11:19:49;30.90;80.20
40848;DHT22;26570;50.962;5.340;2022-07-29T11:22:35;30.80;79.30
40848;DHT22;26570;50.962;5.340;2022-07-29T11:25:22;31.00;80.60
40848;DHT22;26570;50.962;5.340;2022-07-29T11:28:19;31.30;80.50
40848;DHT22;26570;50.962;5.340;2022-07-29T11:31:10;31.60;77.50
40848;DHT22;26570;50.962;5.340;2022-07-29T11:33:55;31.30;79.00
40848;DHT22;26570;50.962;5.340;2022-07-29T11:42:43;31.90;77.40
40848;DHT22;26570;50.962;5.340;2022-07-29T11:45:45;31.80;77.80
40848;DHT22;26570;50.962;5.340;2022-07-29T11:48:30;32.00;78.60
40848;DHT22;26570;50.962;5.340;2022-07-29T11:51:15;32.00;77.80
40848;DHT22;26570;50.962;5.340;2022-07-29T11:54:02;31.60;79.90
40848;DHT22;26570;50.962;5.340;2022-07-29T11:56:47;31.50;81.10
40848;DHT22;26570;50.962;5.340;2022-07-29T11:59:42;31.30;81.10
40848;DHT22;26570;50.962;5.340;2022-07-29T12:02:41;31.00;80.50
40848;DHT22;26570;50.962;5.340;2022-07-29T12:08:20;30.50;81.10
40848;DHT22;26570;50.962;5.340;2022-07-29T12:11:16;30.70;80.40
40848;DHT22;26570;50.962;5.340;2022-07-29T12:14:00;30.90;81.20
40848;DHT22;26570;50.962;5.340;2022-07-29T12:16:46;31.30;80.60
40848;DHT22;26570;50.962;5.340;2022-07-29T12:19:42;31.50;79.50
40848;DHT22;26570;50.962;5.340;2022-07-29T12:22:35;31.90;79.50
40848;DHT22;26570;50.962;5.340;2022-07-29T12:25:23;32.20;77.30
40848;DHT22;26570;50.962;5.340;2022-07-29T12:28:10;32.40;78.60
40848;DHT22;26570;50.962;5.340;2022-07-29T12:30:55;32.30;77.40
40848;DHT22;26570;50.962;5.340;2022-07-29T12:33:39;32.00;76.20
40848;DHT22;26570;50.962;5.340;2022-07-29T12:36:24;31.70;76.40
40848;DHT22;26570;50.962;5.340;2022-07-29T12:39:10;31.50;76.90
40848;DHT22;26570;50.962;5.340;2022-07-29T12:41:55;31.50;76.30
40848;DHT22;26570;50.962;5.340;2022-07-29T12:44:50;31.70;76.10
40848;DHT22;26570;50.962;5.340;2022-07-29T12:47:51;31.70;76.50
40848;DHT22;26570;50.962;5.340;2022-07-29T12:50:51;31.80;75.70
40848;DHT22;26570;50.962;5.340;2022-07-29T12:53:37;31.90;75.80
40848;DHT22;26570;50.962;5.340;2022-07-29T12:56:22;31.70;75.50
40848;DHT22;26570;50.962;5.340;2022-07-29T12:59:21;31.60;75.40
40848;DHT22;26570;50.962;5.340;2022-07-29T13:02:06;31.40;76.20
40848;DHT22;26570;50.962;5.340;2022-07-29T13:04:58;30.90;77.00
40848;DHT22;26570;50.962;5.340;2022-07-29T13:07:43;30.60;76.70
40848;DHT22;26570;50.962;5.340;2022-07-29T13:10:28;30.60;77.90
40848;DHT22;26570;50.962;5.340;2022-07-29T13:13:19;30.60;76.80
40848;DHT22;26570;50.962;5.340;2022-07-29T13:16:07;30.70;78.40
40848;DHT22;26570;50.962;5.340;2022-07-29T13:19:10;30.90;76.70
40848;DHT22;26570;50.962;5.340;2022-07-29T13:21:55;31.30;75.20
40848;DHT22;26570;50.962;5.340;2022-07-29T13:24:57;31.40;75.80
40848;DHT22;26570;50.962;5.340;2022-07-29T13:27:42;31.60;76.90
40848;DHT22;26570;50.962;5.340;2022-07-29T13:30:30;31.90;74.70
40848;DHT22;26570;50.962;5.340;2022-07-29T13:33:14;31.80;74.10
40848;DHT22;26570;50.962;5.340;2022-07-29T13:35:59;31.60;73.70
40848;DHT22;26570;50.962;5.340;2022-07-29T13:38:43;31.80;73.10
40848;DHT22;26570;50.962;5.340;2022-07-29T13:41:29;31.80;71.90
40848;DHT22;26570;50.962;5.340;2022-07-29T13:44:13;32.00;73.40
40848;DHT22;26570;50.962;5.340;2022-07-29T13:46:58;32.10;72.80
40848;DHT22;26570;50.962;5.340;2022-07-29T13:49:45;32.00;71.20
40848;DHT22;26570;50.962;5.340;2022-07-29T13:52:30;32.00;72.30
40848;DHT22;26570;50.962;5.340;2022-07-29T13:55:15;32.00;70.50
40848;DHT22;26570;50.962;5.340;2022-07-29T13:58:00;32.00;71.10
40848;DHT22;26570;50.962;5.340;2022-07-29T14:00:45;32.20;70.30
40848;DHT22;26570;50.962;5.340;2022-07-29T14:03:30;32.30;71.80
40848;DHT22;26570;50.962;5.340;2022-07-29T14:06:16;32.30;71.70
40848;DHT22;26570;50.962;5.340;2022-07-29T14:09:00;32.20;71.00
40848;DHT22;26570;50.962;5.340;2022-07-29T14:11:45;32.10;70.50
40848;DHT22;26570;50.962;5.340;2022-07-29T14:14:33;32.10;70.20
40848;DHT22;26570;50.962;5.340;2022-07-29T14:17:19;32.20;71.70
40848;DHT22;26570;50.962;5.340;2022-07-29T14:20:04;31.90;70.50
40848;DHT22;26570;50.962;5.340;2022-07-29T14:22:49;31.90;71.30
40848;DHT22;26570;50.962;5.340;2022-07-29T14:25:34;31.80;72.50
40848;DHT22;26570;50.962;5.340;2022-07-29T14:28:19;31.70;70.60
40848;DHT22;26570;50.962;5.340;2022-07-29T14:31:03;31.70;70.80
40848;DHT22;26570;50.962;5.340;2022-07-29T14:33:49;31.40;72.50
40848;DHT22;26570;50.962;5.340;2022-07-29T14:36:33;31.20;72.90
40848;DHT22;26570;50.962;5.340;2022-07-29T14:39:21;31.20;72.00
40848;DHT22;26570;50.962;5.340;2022-07-29T14:42:07;31.10;71.80
40848;DHT22;26570;50.962;5.340;2022-07-29T14:44:52;31.00;72.80
40848;DHT22;26570;50.962;5.340;2022-07-29T14:47:38;31.10;71.20
40848;DHT22;26570;50.962;5.340;2022-07-29T14:50:23;31.10;71.40
40848;DHT22;26570;50.962;5.340;2022-07-29T14:53:08;31.00;72.60
40848;DHT22;26570;50.962;5.340;2022-07-29T14:55:53;30.60;72.20
40848;DHT22;26570;50.962;5.340;2022-07-29T14:58:37;30.50;71.30
40848;DHT22;26570;50.962;5.340;2022-07-29T15:01:21;30.40;71.10
40848;DHT22;26570;50.962;5.340;2022-07-29T15:04:06;30.70;71.30
40848;DHT22;26570;50.962;5.340;2022-07-29T15:07:15;30.70;71.60
40848;DHT22;26570;50.962;5.340;2022-07-29T15:10:00;30.60;72.30
40848;DHT22;26570;50.962;5.340;2022-07-29T15:12:45;30.90;72.50
40848;DHT22;26570;50.962;5.340;2022-07-29T15:15:29;31.00;72.40
40848;DHT22;26570;50.962;5.340;2022-07-29T15:18:14;31.40;72.40
40848;DHT22;26570;50.962;5.340;2022-07-29T15:20:59;31.60;71.10
40848;DHT22;26570;50.962;5.340;2022-07-29T15:23:48;31.40;70.80
40848;DHT22;26570;50.962;5.340;2022-07-29T15:26:33;31.80;69.90
40848;DHT22;26570;50.962;5.340;2022-07-29T15:29:18;32.30;70.40
40848;DHT22;26570;50.962;5.340;2022-07-29T15:32:03;32.20;69.60
40848;DHT22;26570;50.962;5.340;2022-07-29T15:34:48;32.00;69.10
40848;DHT22;26570;50.962;5.340;2022-07-29T15:37:39;32.00;69.40
40848;DHT22;26570;50.962;5.340;2022-07-29T15:40:24;31.90;68.70
40848;DHT22;26570;50.962;5.340;2022-07-29T15:43:09;31.70;68.90
40848;DHT22;26570;50.962;5.340;2022-07-29T15:45:54;31.20;69.30
40848;DHT22;26570;50.962;5.340;2022-07-29T15:48:57;30.70;69.60
40848;DHT22;26570;50.962;5.340;2022-07-29T15:51:42;30.60;69.20
40848;DHT22;26570;50.962;5.340;2022-07-29T15:54:27;30.30;71.00
40848;DHT22;26570;50.962;5.340;2022-07-29T15:57:12;30.30;71.50
40848;DHT22;26570;50.962;5.340;2022-07-29T15:59:56;30.10;71.10
40848;DHT22;26570;50.962;5.340;2022-07-29T16:02:42;29.80;71.50
40848;DHT22;26570;50.962;5.340;2022-07-29T16:05:26;29.70;72.70
40848;DHT22;26570;50.962;5.340;2022-07-29T16:08:12;29.50;72.80
40848;DHT22;26570;50.962;5.340;2022-07-29T16:10:57;29.10;72.30
40848;DHT22;26570;50.962;5.340;2022-07-29T16:13:42;29.00;72.50
40848;DHT22;26570;50.962;5.340;2022-07-29T16:16:26;28.80;73.10
40848;DHT22;26570;50.962;5.340;2022-07-29T16:19:12;28.80;74.00
40848;DHT22;26570;50.962;5.340;2022-07-29T16:21:57;28.80;73.40
40848;DHT22;26570;50.962;5.340;2022-07-29T16:24:42;28.70;74.20
40848;DHT22;26570;50.962;5.340;2022-07-29T16:27:27;28.70;74.90
40848;DHT22;26570;50.962;5.340;2022-07-29T16:30:12;28.50;74.50
40848;DHT22;26570;50.962;5.340;2022-07-29T16:32:57;28.60;73.80
40848;DHT22;26570;50.962;5.340;2022-07-29T16:35:42;28.80;73.40
40848;DHT22;26570;50.962;5.340;2022-07-29T16:38:27;28.60;73.70
40848;DHT22;26570;50.962;5.340;2022-07-29T16:41:12;28.50;74.30
40848;DHT22;26570;50.962;5.340;2022-07-29T16:43:57;28.30;74.60
40848;DHT22;26570;50.962;5.340;2022-07-29T16:46:44;28.40;72.50
40848;DHT22;26570;50.962;5.340;2022-07-29T16:49:30;28.20;73.20
40848;DHT22;26570;50.962;5.340;2022-07-29T16:52:15;28.10;73.70
40848;DHT22;26570;50.962;5.340;2022-07-29T16:54:59;28.20;73.00
40848;DHT22;26570;50.962;5.340;2022-07-29T16:57:44;28.20;73.40
40848;DHT22;26570;50.962;5.340;2022-07-29T17:00:30;28.10;73.60
40848;DHT22;26570;50.962;5.340;2022-07-29T17:03:15;28.20;73.80
40848;DHT22;26570;50.962;5.340;2022-07-29T17:06:00;28.40;73.50
40848;DHT22;26570;50.962;5.340;2022-07-29T17:08:44;28.50;73.90
40848;DHT22;26570;50.962;5.340;2022-07-29T17:11:29;28.70;73.90
40848;DHT22;26570;50.962;5.340;2022-07-29T17:14:14;28.90;73.20
40848;DHT22;26570;50.962;5.340;2022-07-29T17:17:00;29.10;72.30
40848;DHT22;26570;50.962;5.340;2022-07-29T17:19:45;29.00;73.10
40848;DHT22;26570;50.962;5.340;2022-07-29T17:22:29;28.80;72.50
40848;DHT22;26570;50.962;5.340;2022-07-29T17:25:14;28.70;73.10
40848;DHT22;26570;50.962;5.340;2022-07-29T17:27:59;28.90;72.60
40848;DHT22;26570;50.962;5.340;2022-07-29T17:30:43;28.90;73.00
40848;DHT22;26570;50.962;5.340;2022-07-29T17:33:29;28.90;72.60
40848;DHT22;26570;50.962;5.340;2022-07-29T17:36:13;29.10;72.80
40848;DHT22;26570;50.962;5.340;2022-07-29T17:39:08;29.00;72.40
40848;DHT22;26570;50.962;5.340;2022-07-29T17:41:54;29.20;72.30
40848;DHT22;26570;50.962;5.340;2022-07-29T17:44:40;29.20;72.30
40848;DHT22;26570;50.962;5.340;2022-07-29T17:47:24;29.10;73.10
40848;DHT22;26570;50.962;5.340;2022-07-29T17:50:09;29.30;72.50
40848;DHT22;26570;50.962;5.340;2022-07-29T17:52:54;29.30;72.20
40848;DHT22;26570;50.962;5.340;2022-07-29T17:55:38;29.30;71.90
40848;DHT22;26570;50.962;5.340;2022-07-29T17:58:24;29.00;73.20
40848;DHT22;26570;50.962;5.340;2022-07-29T18:01:08;28.90;72.60
40848;DHT22;26570;50.962;5.340;2022-07-29T18:03:53;28.70;73.60
40848;DHT22;26570;50.962;5.340;2022-07-29T18:06:38;28.60;73.50
40848;DHT22;26570;50.962;5.340;2022-07-29T18:09:23;28.40;73.60